sensor_id;sensor_type;location;lat;lon;timestamp;temperature;humidity
24338;DHT22;12457;50.832;4.346;2022-08-02T00:00:52;20.40;1.00
24338;DHT22;12457;50.832;4.346;2022-08-02T00:03:26;20.40;1.00
24338;DHT22;12457;50.832;4.346;2022-08-02T00:05:55;20.50;1.00
24338;DHT22;12457;50.832;4.346;2022-08-02T00:08:21;20.50;1.00
24338;DHT22;12457;50.832;4.346;2022-08-02T00:10:50;20.50;1.00
24338;DHT22;12457;50.832;4.346;2022-08-02T00:13:16;20.40;1.00
24338;DHT22;12457;50.832;4.346;2022-08-02T00:15:41;20.50;1.00
24338;DHT22;12457;50.832;4.346;2022-08-02T00:18:13;20.50;1.00
24338;DHT22;12457;50.832;4.346;2022-08-02T00:20:41;20.40;1.00
24338;DHT22;12457;50.832;4.346;2022-08-02T00:23:07;20.40;1.00
24338;DHT22;12457;50.832;4.346;2022-08-02T00:25:33;20.50;1.00
24338;DHT22;12457;50.832;4.346;2022-08-02T00:27:58;20.40;1.00
24338;DHT22;12457;50.832;4.346;2022-08-02T00:30:24;20.50;1.00
24338;DHT22;12457;50.832;4.346;2022-08-02T00:32:50;20.50;1.00
24338;DHT22;12457;50.832;4.346;2022-08-02T00:35:15;20.50;1.00
24338;DHT22;12457;50.832;4.346;2022-08-02T00:37:41;20.40;1.00
24338;DHT22;12457;50.832;4.346;2022-08-02T00:40:08;20.40;1.00
24338;DHT22;12457;50.832;4.346;2022-08-02T00:42:34;20.50;1.00
24338;DHT22;12457;50.832;4.346;2022-08-02T00:45:00;20.40;1.00
24338;DHT22;12457;50.832;4.346;2022-08-02T00:47:26;20.40;1.00
24338;DHT22;12457;50.832;4.346;2022-08-02T00:49:52;20.40;1.00
24338;DHT22;12457;50.832;4.346;2022-08-02T00:52:22;20.40;1.00
24338;DHT22;12457;50.832;4.346;2022-08-02T00:54:50;20.40;1.00
24338;DHT22;12457;50.832;4.346;2022-08-02T00:57:19;20.40;1.00
24338;DHT22;12457;50.832;4.346;2022-08-02T00:59:48;20.30;1.00
24338;DHT22;12457;50.832;4.346;2022-08-02T01:02:14;20.30;1.00
24338;DHT22;12457;50.832;4.346;2022-08-02T01:04:39;20.30;1.00
24338;DHT22;12457;50.832;4.346;2022-08-02T01:07:05;20.40;1.00
24338;DHT22;12457;50.832;4.346;2022-08-02T01:09:31;20.30;1.00
24338;DHT22;12457;50.832;4.346;2022-08-02T01:11:59;20.30;1.00
24338;DHT22;12457;50.832;4.346;2022-08-02T01:14:30;20.30;1.00
24338;DHT22;12457;50.832;4.346;2022-08-02T01:17:35;20.40;1.00
24338;DHT22;12457;50.832;4.346;2022-08-02T01:26:36;20.50;1.00
24338;DHT22;12457;50.832;4.346;2022-08-02T01:29:25;20.50;1.00
24338;DHT22;12457;50.832;4.346;2022-08-02T01:32:22;20.60;1.00
24338;DHT22;12457;50.832;4.346;2022-08-02T01:35:05;20.50;1.00
24338;DHT22;12457;50.832;4.346;2022-08-02T01:37:44;20.40;1.00
24338;DHT22;12457;50.832;4.346;2022-08-02T01:40:17;20.40;1.00
24338;DHT22;12457;50.832;4.346;2022-08-02T01:42:52;20.40;1.00
24338;DHT22;12457;50.832;4.346;2022-08-02T01:45:36;20.40;1.00
24338;DHT22;12457;50.832;4.346;2022-08-02T01:48:07;20.40;1.00
24338;DHT22;12457;50.832;4.346;2022-08-02T01:50:36;20.50;1.00
24338;DHT22;12457;50.832;4.346;2022-08-02T01:53:06;20.50;1.00
24338;DHT22;12457;50.832;4.346;2022-08-02T01:55:36;20.60;1.00
24338;DHT22;12457;50.832;4.346;2022-08-02T01:58:06;20.50;1.00
24338;DHT22;12457;50.832;4.346;2022-08-02T02:00:35;20.40;1.00
24338;DHT22;12457;50.832;4.346;2022-08-02T02:03:05;20.40;1.00
24338;DHT22;12457;50.832;4.346;2022-08-02T02:05:32;20.30;1.30
24338;DHT22;12457;50.832;4.346;2022-08-02T02:08:00;20.30;2.50
24338;DHT22;12457;50.832;4.346;2022-08-02T02:10:28;20.30;1.80
24338;DHT22;12457;50.832;4.346;2022-08-02T02:12:56;20.40;1.60
24338;DHT22;12457;50.832;4.346;2022-08-02T02:15:23;20.40;1.50
24338;DHT22;12457;50.832;4.346;2022-08-02T02:17:51;20.30;3.90
24338;DHT22;12457;50.832;4.346;2022-08-02T02:20:19;20.30;5.30
24338;DHT22;12457;50.832;4.346;2022-08-02T02:22:45;20.30;5.20
24338;DHT22;12457;50.832;4.346;2022-08-02T02:25:13;20.30;4.20
24338;DHT22;12457;50.832;4.346;2022-08-02T02:27:47;20.30;4.50
24338;DHT22;12457;50.832;4.346;2022-08-02T02:30:15;20.30;4.50
24338;DHT22;12457;50.832;4.346;2022-08-02T02:32:43;20.30;5.50
24338;DHT22;12457;50.832;4.346;2022-08-02T02:35:10;20.20;8.80
24338;DHT22;12457;50.832;4.346;2022-08-02T02:37:39;20.10;12.70
24338;DHT22;12457;50.832;4.346;2022-08-02T02:40:06;20.10;15.90
24338;DHT22;12457;50.832;4.346;2022-08-02T02:42:33;20.00;21.50
24338;DHT22;12457;50.832;4.346;2022-08-02T02:45:01;20.00;22.80
24338;DHT22;12457;50.832;4.346;2022-08-02T02:47:28;20.00;23.50
24338;DHT22;12457;50.832;4.346;2022-08-02T02:50:01;20.00;23.40
24338;DHT22;12457;50.832;4.346;2022-08-02T02:52:30;20.00;23.90
24338;DHT22;12457;50.832;4.346;2022-08-02T02:54:57;20.00;26.10
24338;DHT22;12457;50.832;4.346;2022-08-02T02:57:30;19.90;28.60
24338;DHT22;12457;50.832;4.346;2022-08-02T02:59:56;19.90;27.90
24338;DHT22;12457;50.832;4.346;2022-08-02T03:02:23;19.90;29.50
24338;DHT22;12457;50.832;4.346;2022-08-02T03:04:48;19.90;31.40
24338;DHT22;12457;50.832;4.346;2022-08-02T03:07:15;19.80;35.50
24338;DHT22;12457;50.832;4.346;2022-08-02T03:09:40;19.90;38.20
24338;DHT22;12457;50.832;4.346;2022-08-02T03:12:08;19.90;36.90
24338;DHT22;12457;50.832;4.346;2022-08-02T03:14:34;19.90;39.00
24338;DHT22;12457;50.832;4.346;2022-08-02T03:17:04;19.80;43.50
24338;DHT22;12457;50.832;4.346;2022-08-02T03:19:33;19.80;46.70
24338;DHT22;12457;50.832;4.346;2022-08-02T03:21:58;19.80;48.40
24338;DHT22;12457;50.832;4.346;2022-08-02T03:24:24;19.90;48.50
24338;DHT22;12457;50.832;4.346;2022-08-02T03:26:49;19.90;49.10
24338;DHT22;12457;50.832;4.346;2022-08-02T03:29:15;19.90;49.30
24338;DHT22;12457;50.832;4.346;2022-08-02T03:31:42;19.90;50.00
24338;DHT22;12457;50.832;4.346;2022-08-02T03:34:09;19.80;52.40
24338;DHT22;12457;50.832;4.346;2022-08-02T03:36:36;19.80;52.90
24338;DHT22;12457;50.832;4.346;2022-08-02T03:39:03;19.80;54.70
24338;DHT22;12457;50.832;4.346;2022-08-02T03:41:30;19.80;54.80
24338;DHT22;12457;50.832;4.346;2022-08-02T03:43:57;19.70;56.90
24338;DHT22;12457;50.832;4.346;2022-08-02T03:46:24;19.70;59.60
24338;DHT22;12457;50.832;4.346;2022-08-02T03:48:51;19.80;57.90
24338;DHT22;12457;50.832;4.346;2022-08-02T03:51:20;19.80;58.80
24338;DHT22;12457;50.832;4.346;2022-08-02T03:53:47;19.80;59.90
24338;DHT22;12457;50.832;4.346;2022-08-02T03:56:14;19.80;60.40
24338;DHT22;12457;50.832;4.346;2022-08-02T03:58:40;19.80;59.00
24338;DHT22;12457;50.832;4.346;2022-08-02T04:01:05;19.90;60.60
24338;DHT22;12457;50.832;4.346;2022-08-02T04:03:31;19.80;61.20
24338;DHT22;12457;50.832;4.346;2022-08-02T04:05:57;19.80;60.80
24338;DHT22;12457;50.832;4.346;2022-08-02T04:08:23;19.80;62.10
24338;DHT22;12457;50.832;4.346;2022-08-02T04:10:49;19.80;63.10
24338;DHT22;12457;50.832;4.346;2022-08-02T04:13:35;19.80;62.90
24338;DHT22;12457;50.832;4.346;2022-08-02T04:16:13;19.80;63.10
24338;DHT22;12457;50.832;4.346;2022-08-02T04:18:46;19.70;64.80
24338;DHT22;12457;50.832;4.346;2022-08-02T04:21:16;19.70;67.30
24338;DHT22;12457;50.832;4.346;2022-08-02T04:23:45;19.70;66.70
24338;DHT22;12457;50.832;4.346;2022-08-02T04:26:11;19.60;67.20
24338;DHT22;12457;50.832;4.346;2022-08-02T04:28:39;19.60;69.20
24338;DHT22;12457;50.832;4.346;2022-08-02T04:31:05;19.60;69.60
24338;DHT22;12457;50.832;4.346;2022-08-02T04:33:40;19.60;69.30
24338;DHT22;12457;50.832;4.346;2022-08-02T04:36:09;19.50;69.40
24338;DHT22;12457;50.832;4.346;2022-08-02T04:38:38;19.40;71.20
24338;DHT22;12457;50.832;4.346;2022-08-02T04:41:04;19.40;71.20
24338;DHT22;12457;50.832;4.346;2022-08-02T04:43:30;19.40;71.30
24338;DHT22;12457;50.832;4.346;2022-08-02T04:45:55;19.40;71.90
24338;DHT22;12457;50.832;4.346;2022-08-02T04:48:22;19.40;71.20
24338;DHT22;12457;50.832;4.346;2022-08-02T04:50:49;19.40;71.70
24338;DHT22;12457;50.832;4.346;2022-08-02T04:53:15;19.40;73.70
24338;DHT22;12457;50.832;4.346;2022-08-02T04:55:41;19.30;76.20
24338;DHT22;12457;50.832;4.346;2022-08-02T04:58:12;19.40;75.80
24338;DHT22;12457;50.832;4.346;2022-08-02T05:00:39;19.50;70.20
24338;DHT22;12457;50.832;4.346;2022-08-02T05:03:05;19.50;73.20
24338;DHT22;12457;50.832;4.346;2022-08-02T05:05:30;19.50;72.20
24338;DHT22;12457;50.832;4.346;2022-08-02T05:07:56;19.60;69.20
24338;DHT22;12457;50.832;4.346;2022-08-02T05:10:22;19.60;69.10
24338;DHT22;12457;50.832;4.346;2022-08-02T05:12:48;19.60;69.80
24338;DHT22;12457;50.832;4.346;2022-08-02T05:15:14;19.50;71.00
24338;DHT22;12457;50.832;4.346;2022-08-02T05:17:43;19.60;72.40
24338;DHT22;12457;50.832;4.346;2022-08-02T05:20:10;19.70;75.30
24338;DHT22;12457;50.832;4.346;2022-08-02T05:22:37;20.10;70.70
24338;DHT22;12457;50.832;4.346;2022-08-02T05:25:04;20.40;59.50
24338;DHT22;12457;50.832;4.346;2022-08-02T05:27:29;20.90;46.00
24338;DHT22;12457;50.832;4.346;2022-08-02T05:29:57;21.20;35.00
24338;DHT22;12457;50.832;4.346;2022-08-02T05:32:24;21.40;27.90
24338;DHT22;12457;50.832;4.346;2022-08-02T05:34:50;21.40;24.70
24338;DHT22;12457;50.832;4.346;2022-08-02T05:37:16;21.40;28.90
24338;DHT22;12457;50.832;4.346;2022-08-02T05:39:42;21.50;21.40
24338;DHT22;12457;50.832;4.346;2022-08-02T05:42:08;21.70;18.60
24338;DHT22;12457;50.832;4.346;2022-08-02T05:44:33;22.00;15.40
24338;DHT22;12457;50.832;4.346;2022-08-02T05:47:03;22.20;1.70
24338;DHT22;12457;50.832;4.346;2022-08-02T05:49:31;22.30;1.00
24338;DHT22;12457;50.832;4.346;2022-08-02T05:52:03;22.30;2.30
24338;DHT22;12457;50.832;4.346;2022-08-02T05:54:48;22.60;1.00
24338;DHT22;12457;50.832;4.346;2022-08-02T05:57:41;22.90;1.00
24338;DHT22;12457;50.832;4.346;2022-08-02T06:00:11;23.00;1.00
24338;DHT22;12457;50.832;4.346;2022-08-02T06:05:19;23.40;1.00
24338;DHT22;12457;50.832;4.346;2022-08-02T06:07:47;24.10;1.00
24338;DHT22;12457;50.832;4.346;2022-08-02T06:10:14;24.40;1.00
24338;DHT22;12457;50.832;4.346;2022-08-02T06:12:50;24.50;1.00
24338;DHT22;12457;50.832;4.346;2022-08-02T06:15:17;24.30;1.00
24338;DHT22;12457;50.832;4.346;2022-08-02T06:17:49;24.90;1.00
24338;DHT22;12457;50.832;4.346;2022-08-02T06:20:17;25.30;1.00
24338;DHT22;12457;50.832;4.346;2022-08-02T06:22:47;25.30;99.90
24338;DHT22;12457;50.832;4.346;2022-08-02T06:25:13;25.30;99.90
24338;DHT22;12457;50.832;4.346;2022-08-02T06:27:39;25.70;99.90
24338;DHT22;12457;50.832;4.346;2022-08-02T06:30:08;25.70;99.90
24338;DHT22;12457;50.832;4.346;2022-08-02T06:32:41;26.20;99.90
24338;DHT22;12457;50.832;4.346;2022-08-02T06:35:08;26.20;66.80
24338;DHT22;12457;50.832;4.346;2022-08-02T06:37:57;26.50;1.00
24338;DHT22;12457;50.832;4.346;2022-08-02T06:43:17;26.70;99.90
24338;DHT22;12457;50.832;4.346;2022-08-02T06:45:43;26.50;99.90
24338;DHT22;12457;50.832;4.346;2022-08-02T06:48:09;26.20;99.90
24338;DHT22;12457;50.832;4.346;2022-08-02T06:50:36;26.30;99.90
24338;DHT22;12457;50.832;4.346;2022-08-02T06:53:04;26.10;99.90
24338;DHT22;12457;50.832;4.346;2022-08-02T06:55:30;25.90;1.00
24338;DHT22;12457;50.832;4.346;2022-08-02T06:57:57;25.90;1.00
24338;DHT22;12457;50.832;4.346;2022-08-02T07:00:29;25.90;1.00
24338;DHT22;12457;50.832;4.346;2022-08-02T07:02:55;25.50;78.00
24338;DHT22;12457;50.832;4.346;2022-08-02T07:05:21;25.20;99.90
24338;DHT22;12457;50.832;4.346;2022-08-02T07:07:47;25.00;1.00
24338;DHT22;12457;50.832;4.346;2022-08-02T07:10:13;24.90;1.00
24338;DHT22;12457;50.832;4.346;2022-08-02T07:12:39;24.80;1.00
24338;DHT22;12457;50.832;4.346;2022-08-02T07:15:06;24.70;40.40
24338;DHT22;12457;50.832;4.346;2022-08-02T07:17:33;25.20;1.00
24338;DHT22;12457;50.832;4.346;2022-08-02T07:19:59;25.50;1.00
24338;DHT22;12457;50.832;4.346;2022-08-02T07:22:26;26.00;99.90
24338;DHT22;12457;50.832;4.346;2022-08-02T07:24:54;26.20;1.00
24338;DHT22;12457;50.832;4.346;2022-08-02T07:27:20;26.40;1.00
24338;DHT22;12457;50.832;4.346;2022-08-02T07:29:46;26.30;1.00
24338;DHT22;12457;50.832;4.346;2022-08-02T07:32:12;26.30;99.90
24338;DHT22;12457;50.832;4.346;2022-08-02T07:34:43;26.60;99.90
24338;DHT22;12457;50.832;4.346;2022-08-02T07:37:09;26.90;1.00
24338;DHT22;12457;50.832;4.346;2022-08-02T07:39:35;27.00;99.90
24338;DHT22;12457;50.832;4.346;2022-08-02T07:42:00;26.90;99.90
24338;DHT22;12457;50.832;4.346;2022-08-02T07:44:26;26.60;99.90
24338;DHT22;12457;50.832;4.346;2022-08-02T07:46:56;25.90;1.70
24338;DHT22;12457;50.832;4.346;2022-08-02T07:49:21;26.10;99.90
24338;DHT22;12457;50.832;4.346;2022-08-02T07:51:47;26.00;99.90
24338;DHT22;12457;50.832;4.346;2022-08-02T07:54:12;25.80;99.90
24338;DHT22;12457;50.832;4.346;2022-08-02T07:56:38;25.70;1.00
24338;DHT22;12457;50.832;4.346;2022-08-02T07:59:04;25.40;16.70
24338;DHT22;12457;50.832;4.346;2022-08-02T08:01:30;25.10;99.90
24338;DHT22;12457;50.832;4.346;2022-08-02T08:03:55;24.60;90.00
24338;DHT22;12457;50.832;4.346;2022-08-02T08:06:21;24.50;99.90
24338;DHT22;12457;50.832;4.346;2022-08-02T08:08:47;24.50;99.90
24338;DHT22;12457;50.832;4.346;2022-08-02T08:11:19;24.50;99.90
24338;DHT22;12457;50.832;4.346;2022-08-02T08:13:45;24.70;99.90
24338;DHT22;12457;50.832;4.346;2022-08-02T08:16:11;24.90;99.90
24338;DHT22;12457;50.832;4.346;2022-08-02T08:18:37;25.00;99.90
24338;DHT22;12457;50.832;4.346;2022-08-02T08:21:15;25.10;99.90
24338;DHT22;12457;50.832;4.346;2022-08-02T08:23:44;25.20;1.00
24338;DHT22;12457;50.832;4.346;2022-08-02T08:26:10;25.10;1.00
24338;DHT22;12457;50.832;4.346;2022-08-02T08:28:39;24.70;1.00
24338;DHT22;12457;50.832;4.346;2022-08-02T08:31:05;24.70;1.00
24338;DHT22;12457;50.832;4.346;2022-08-02T08:33:31;24.80;14.40
24338;DHT22;12457;50.832;4.346;2022-08-02T08:35:57;24.60;95.40
24338;DHT22;12457;50.832;4.346;2022-08-02T08:38:22;24.70;9.30
24338;DHT22;12457;50.832;4.346;2022-08-02T08:40:49;24.70;1.00
24338;DHT22;12457;50.832;4.346;2022-08-02T08:43:15;24.60;1.00
24338;DHT22;12457;50.832;4.346;2022-08-02T08:45:45;24.50;47.70
24338;DHT22;12457;50.832;4.346;2022-08-02T08:48:16;24.50;98.10
24338;DHT22;12457;50.832;4.346;2022-08-02T08:50:49;24.50;85.80
24338;DHT22;12457;50.832;4.346;2022-08-02T08:53:20;24.70;5.70
24338;DHT22;12457;50.832;4.346;2022-08-02T08:55:52;24.80;1.00
24338;DHT22;12457;50.832;4.346;2022-08-02T08:58:21;24.70;1.00
24338;DHT22;12457;50.832;4.346;2022-08-02T09:00:47;24.60;1.00
24338;DHT22;12457;50.832;4.346;2022-08-02T09:03:13;24.50;1.00
24338;DHT22;12457;50.832;4.346;2022-08-02T09:05:39;24.70;1.00
24338;DHT22;12457;50.832;4.346;2022-08-02T09:08:06;24.90;1.00
24338;DHT22;12457;50.832;4.346;2022-08-02T09:10:55;24.90;1.00
24338;DHT22;12457;50.832;4.346;2022-08-02T09:13:24;25.00;1.00
24338;DHT22;12457;50.832;4.346;2022-08-02T09:15:58;25.00;1.00
24338;DHT22;12457;50.832;4.346;2022-08-02T09:18:33;25.30;1.00
24338;DHT22;12457;50.832;4.346;2022-08-02T09:21:06;25.30;99.90
24338;DHT22;12457;50.832;4.346;2022-08-02T09:23:40;25.60;99.90
24338;DHT22;12457;50.832;4.346;2022-08-02T09:26:19;25.70;99.90
24338;DHT22;12457;50.832;4.346;2022-08-02T09:28:48;25.90;99.90
24338;DHT22;12457;50.832;4.346;2022-08-02T09:31:26;26.20;1.00
24338;DHT22;12457;50.832;4.346;2022-08-02T09:33:57;26.50;99.90
24338;DHT22;12457;50.832;4.346;2022-08-02T09:36:24;26.50;99.90
24338;DHT22;12457;50.832;4.346;2022-08-02T09:38:59;26.60;91.70
24338;DHT22;12457;50.832;4.346;2022-08-02T09:41:29;26.50;48.10
24338;DHT22;12457;50.832;4.346;2022-08-02T09:44:02;26.50;99.90
24338;DHT22;12457;50.832;4.346;2022-08-02T09:46:29;26.60;77.50
24338;DHT22;12457;50.832;4.346;2022-08-02T09:49:01;26.30;99.90
24338;DHT22;12457;50.832;4.346;2022-08-02T09:51:28;26.40;99.90
24338;DHT22;12457;50.832;4.346;2022-08-02T09:53:56;26.80;99.90
24338;DHT22;12457;50.832;4.346;2022-08-02T09:56:25;27.00;1.00
24338;DHT22;12457;50.832;4.346;2022-08-02T09:58:52;27.00;99.90
24338;DHT22;12457;50.832;4.346;2022-08-02T10:01:32;26.90;99.90
24338;DHT22;12457;50.832;4.346;2022-08-02T10:04:00;26.80;99.90
24338;DHT22;12457;50.832;4.346;2022-08-02T10:06:27;26.80;99.90
24338;DHT22;12457;50.832;4.346;2022-08-02T10:08:53;26.80;99.90
24338;DHT22;12457;50.832;4.346;2022-08-02T10:11:20;27.00;99.90
24338;DHT22;12457;50.832;4.346;2022-08-02T10:13:47;27.20;1.00
24338;DHT22;12457;50.832;4.346;2022-08-02T10:16:18;27.30;99.90
24338;DHT22;12457;50.832;4.346;2022-08-02T10:18:51;27.40;99.90
24338;DHT22;12457;50.832;4.346;2022-08-02T10:21:31;27.60;1.00
24338;DHT22;12457;50.832;4.346;2022-08-02T10:24:27;27.80;99.90
24338;DHT22;12457;50.832;4.346;2022-08-02T10:26:55;28.10;99.90
24338;DHT22;12457;50.832;4.346;2022-08-02T10:29:29;28.40;99.90
24338;DHT22;12457;50.832;4.346;2022-08-02T10:32:02;28.10;99.90
24338;DHT22;12457;50.832;4.346;2022-08-02T10:34:39;28.10;1.00
24338;DHT22;12457;50.832;4.346;2022-08-02T10:37:11;28.30;99.90
24338;DHT22;12457;50.832;4.346;2022-08-02T10:39:42;28.70;99.90
24338;DHT22;12457;50.832;4.346;2022-08-02T10:42:09;29.00;71.20
24338;DHT22;12457;50.832;4.346;2022-08-02T10:44:35;28.80;1.00
24338;DHT22;12457;50.832;4.346;2022-08-02T10:49:53;28.70;99.90
24338;DHT22;12457;50.832;4.346;2022-08-02T10:52:21;28.40;99.90
24338;DHT22;12457;50.832;4.346;2022-08-02T10:55:02;28.40;99.90
24338;DHT22;12457;50.832;4.346;2022-08-02T10:57:31;28.50;6.20
24338;DHT22;12457;50.832;4.346;2022-08-02T11:02:43;28.40;91.80
24338;DHT22;12457;50.832;4.346;2022-08-02T11:05:17;28.40;94.60
24338;DHT22;12457;50.832;4.346;2022-08-02T11:07:47;28.50;99.90
24338;DHT22;12457;50.832;4.346;2022-08-02T11:10:32;28.50;42.50
24338;DHT22;12457;50.832;4.346;2022-08-02T11:13:11;28.60;1.00
24338;DHT22;12457;50.832;4.346;2022-08-02T11:15:56;28.60;1.00
24338;DHT22;12457;50.832;4.346;2022-08-02T11:21:22;28.50;99.90
24338;DHT22;12457;50.832;4.346;2022-08-02T11:23:53;28.50;99.90
24338;DHT22;12457;50.832;4.346;2022-08-02T11:28:58;28.30;99.90
24338;DHT22;12457;50.832;4.346;2022-08-02T11:31:24;28.50;99.90
24338;DHT22;12457;50.832;4.346;2022-08-02T11:33:51;28.40;99.90
24338;DHT22;12457;50.832;4.346;2022-08-02T11:36:20;28.60;99.90
24338;DHT22;12457;50.832;4.346;2022-08-02T11:38:46;28.70;99.90
24338;DHT22;12457;50.832;4.346;2022-08-02T11:41:19;28.70;99.90
24338;DHT22;12457;50.832;4.346;2022-08-02T11:43:45;28.60;99.90
24338;DHT22;12457;50.832;4.346;2022-08-02T11:46:14;28.70;99.90
24338;DHT22;12457;50.832;4.346;2022-08-02T11:48:41;28.70;99.90
24338;DHT22;12457;50.832;4.346;2022-08-02T11:51:11;28.60;99.90
24338;DHT22;12457;50.832;4.346;2022-08-02T11:56:26;28.80;99.90
24338;DHT22;12457;50.832;4.346;2022-08-02T11:59:08;28.70;99.90
24338;DHT22;12457;50.832;4.346;2022-08-02T12:01:36;28.80;99.90
24338;DHT22;12457;50.832;4.346;2022-08-02T12:04:03;28.70;99.90
24338;DHT22;12457;50.832;4.346;2022-08-02T12:06:30;28.70;99.90
24338;DHT22;12457;50.832;4.346;2022-08-02T12:09:04;28.70;99.90
24338;DHT22;12457;50.832;4.346;2022-08-02T12:11:31;28.60;99.90
24338;DHT22;12457;50.832;4.346;2022-08-02T12:13:57;28.70;99.90
24338;DHT22;12457;50.832;4.346;2022-08-02T12:16:23;28.70;99.90
24338;DHT22;12457;50.832;4.346;2022-08-02T12:19:07;28.80;99.90
24338;DHT22;12457;50.832;4.346;2022-08-02T12:22:04;28.70;99.90
24338;DHT22;12457;50.832;4.346;2022-08-02T12:24:33;28.60;99.90
24338;DHT22;12457;50.832;4.346;2022-08-02T12:26:59;28.70;99.90
24338;DHT22;12457;50.832;4.346;2022-08-02T12:29:35;28.80;99.90
24338;DHT22;12457;50.832;4.346;2022-08-02T12:32:03;29.00;99.90
24338;DHT22;12457;50.832;4.346;2022-08-02T12:34:30;29.20;99.90
24338;DHT22;12457;50.832;4.346;2022-08-02T12:37:14;29.20;99.90
24338;DHT22;12457;50.832;4.346;2022-08-02T12:39:45;29.20;99.90
24338;DHT22;12457;50.832;4.346;2022-08-02T12:42:14;29.30;99.90
24338;DHT22;12457;50.832;4.346;2022-08-02T12:44:54;29.10;99.90
24338;DHT22;12457;50.832;4.346;2022-08-02T12:47:22;29.10;99.90
24338;DHT22;12457;50.832;4.346;2022-08-02T12:52:45;29.10;99.90
24338;DHT22;12457;50.832;4.346;2022-08-02T12:58:01;29.30;99.90
24338;DHT22;12457;50.832;4.346;2022-08-02T13:00:36;29.30;99.90
24338;DHT22;12457;50.832;4.346;2022-08-02T13:03:03;29.40;99.90
24338;DHT22;12457;50.832;4.346;2022-08-02T13:05:31;29.50;99.90
24338;DHT22;12457;50.832;4.346;2022-08-02T13:07:59;29.70;99.90
24338;DHT22;12457;50.832;4.346;2022-08-02T13:10:25;29.70;99.90
24338;DHT22;12457;50.832;4.346;2022-08-02T13:12:51;29.50;99.90
24338;DHT22;12457;50.832;4.346;2022-08-02T13:15:17;29.50;99.90
24338;DHT22;12457;50.832;4.346;2022-08-02T13:17:43;29.40;99.90
24338;DHT22;12457;50.832;4.346;2022-08-02T13:20:10;29.50;99.90
24338;DHT22;12457;50.832;4.346;2022-08-02T13:22:36;29.50;99.90
24338;DHT22;12457;50.832;4.346;2022-08-02T13:25:03;29.40;99.90
24338;DHT22;12457;50.832;4.346;2022-08-02T13:27:32;29.50;99.90
24338;DHT22;12457;50.832;4.346;2022-08-02T13:29:59;29.40;99.90
24338;DHT22;12457;50.832;4.346;2022-08-02T13:32:26;29.40;99.90
24338;DHT22;12457;50.832;4.346;2022-08-02T13:35:01;29.40;99.90
24338;DHT22;12457;50.832;4.346;2022-08-02T13:37:34;29.60;99.90
24338;DHT22;12457;50.832;4.346;2022-08-02T13:40:00;29.60;99.90
24338;DHT22;12457;50.832;4.346;2022-08-02T13:42:26;29.50;99.90
24338;DHT22;12457;50.832;4.346;2022-08-02T13:44:52;29.40;99.90
24338;DHT22;12457;50.832;4.346;2022-08-02T13:47:17;29.30;99.90
24338;DHT22;12457;50.832;4.346;2022-08-02T13:49:43;29.50;99.90
24338;DHT22;12457;50.832;4.346;2022-08-02T13:52:09;29.60;99.90
24338;DHT22;12457;50.832;4.346;2022-08-02T13:54:35;29.50;99.90
24338;DHT22;12457;50.832;4.346;2022-08-02T13:57:01;29.30;99.90
24338;DHT22;12457;50.832;4.346;2022-08-02T13:59:26;29.20;1.00
24338;DHT22;12457;50.832;4.346;2022-08-02T14:01:53;29.40;1.00
24338;DHT22;12457;50.832;4.346;2022-08-02T14:04:19;29.50;1.00
24338;DHT22;12457;50.832;4.346;2022-08-02T14:06:45;29.60;99.90
24338;DHT22;12457;50.832;4.346;2022-08-02T14:09:11;29.80;1.00
24338;DHT22;12457;50.832;4.346;2022-08-02T14:11:36;30.00;99.90
24338;DHT22;12457;50.832;4.346;2022-08-02T14:14:02;29.70;99.90
24338;DHT22;12457;50.832;4.346;2022-08-02T14:16:31;29.50;1.00
24338;DHT22;12457;50.832;4.346;2022-08-02T14:18:56;29.60;1.00
24338;DHT22;12457;50.832;4.346;2022-08-02T14:21:22;29.70;1.00
24338;DHT22;12457;50.832;4.346;2022-08-02T14:23:54;29.90;1.00
24338;DHT22;12457;50.832;4.346;2022-08-02T14:26:20;30.10;1.00
24338;DHT22;12457;50.832;4.346;2022-08-02T14:28:52;30.30;1.00
24338;DHT22;12457;50.832;4.346;2022-08-02T14:31:21;30.30;99.90
24338;DHT22;12457;50.832;4.346;2022-08-02T14:33:47;30.30;99.90
24338;DHT22;12457;50.832;4.346;2022-08-02T14:36:12;30.30;99.90
24338;DHT22;12457;50.832;4.346;2022-08-02T14:38:38;30.00;1.00
24338;DHT22;12457;50.832;4.346;2022-08-02T14:41:04;30.10;1.00
24338;DHT22;12457;50.832;4.346;2022-08-02T14:43:30;30.20;1.00
24338;DHT22;12457;50.832;4.346;2022-08-02T14:46:14;30.30;1.00
24338;DHT22;12457;50.832;4.346;2022-08-02T14:48:40;30.40;99.90
24338;DHT22;12457;50.832;4.346;2022-08-02T14:51:06;30.40;99.90
24338;DHT22;12457;50.832;4.346;2022-08-02T14:53:31;30.50;99.90
24338;DHT22;12457;50.832;4.346;2022-08-02T14:55:57;30.60;99.90
24338;DHT22;12457;50.832;4.346;2022-08-02T14:58:22;30.70;99.90
24338;DHT22;12457;50.832;4.346;2022-08-02T15:00:48;30.60;99.90
24338;DHT22;12457;50.832;4.346;2022-08-02T15:03:14;30.60;99.90
24338;DHT22;12457;50.832;4.346;2022-08-02T15:05:39;30.60;99.90
24338;DHT22;12457;50.832;4.346;2022-08-02T15:08:06;30.50;99.90
24338;DHT22;12457;50.832;4.346;2022-08-02T15:10:31;30.50;99.90
24338;DHT22;12457;50.832;4.346;2022-08-02T15:13:00;30.40;99.90
24338;DHT22;12457;50.832;4.346;2022-08-02T15:15:28;30.40;99.90
24338;DHT22;12457;50.832;4.346;2022-08-02T15:17:54;30.50;99.90
24338;DHT22;12457;50.832;4.346;2022-08-02T15:20:21;30.40;99.90
24338;DHT22;12457;50.832;4.346;2022-08-02T15:22:49;30.30;99.90
24338;DHT22;12457;50.832;4.346;2022-08-02T15:25:15;30.40;99.90
24338;DHT22;12457;50.832;4.346;2022-08-02T15:27:43;30.40;99.90
24338;DHT22;12457;50.832;4.346;2022-08-02T15:30:09;30.40;99.90
24338;DHT22;12457;50.832;4.346;2022-08-02T15:32:36;30.30;99.90
24338;DHT22;12457;50.832;4.346;2022-08-02T15:35:01;30.30;99.90
24338;DHT22;12457;50.832;4.346;2022-08-02T15:37:27;30.40;99.90
24338;DHT22;12457;50.832;4.346;2022-08-02T15:39:53;30.30;99.90
24338;DHT22;12457;50.832;4.346;2022-08-02T15:42:19;30.30;99.90
24338;DHT22;12457;50.832;4.346;2022-08-02T15:44:44;30.20;99.90
24338;DHT22;12457;50.832;4.346;2022-08-02T15:47:11;30.20;99.90
24338;DHT22;12457;50.832;4.346;2022-08-02T15:49:36;30.10;99.90
24338;DHT22;12457;50.832;4.346;2022-08-02T15:52:02;29.80;1.00
24338;DHT22;12457;50.832;4.346;2022-08-02T15:54:28;29.70;1.00
24338;DHT22;12457;50.832;4.346;2022-08-02T15:56:54;29.70;1.00
24338;DHT22;12457;50.832;4.346;2022-08-02T15:59:20;29.80;2.00
24338;DHT22;12457;50.832;4.346;2022-08-02T16:01:45;29.90;1.00
24338;DHT22;12457;50.832;4.346;2022-08-02T16:04:11;29.90;1.00
24338;DHT22;12457;50.832;4.346;2022-08-02T16:06:37;30.00;1.00
24338;DHT22;12457;50.832;4.346;2022-08-02T16:09:03;30.00;1.00
24338;DHT22;12457;50.832;4.346;2022-08-02T16:11:29;30.00;4.80
24338;DHT22;12457;50.832;4.346;2022-08-02T16:13:55;30.00;1.00
24338;DHT22;12457;50.832;4.346;2022-08-02T16:16:27;30.10;3.50
24338;DHT22;12457;50.832;4.346;2022-08-02T16:18:54;29.90;1.00